Time;durP1;ratioP1;P1;durP2;ratioP2;P2;SDS_P1;SDS_P2;PMS_P1;PMS_P2;Temp;Humidity;BMP_temperature;BMP_pressure;BME280_temperature;BME280_humidity;BME280_pressure;Samples;Min_cycle;Max_cycle;Signal;HPM_P1;HPM_P2
2022/04/27 00:02:24;;;;;;;10.88;3.80;;;;;;;11.72;70.86;99704.75;4456133;32;35048;-77
2022/04/27 00:05:11;;;;;;;7.87;3.97;;;;;;;11.59;72.62;99705.69;4453554;32;34625;-77
2022/04/27 00:07:58;;;;;;;8.32;4.30;;;;;;;12.42;69.82;99705.78;4455599;32;34616;-77
2022/04/27 00:10:45;;;;;;;8.57;5.05;;;;;;;12.74;67.67;99710.00;4454381;32;34068;-77
2022/04/27 00:13:31;;;;;;;8.63;5.30;;;;;;;12.03;66.10;99712.97;4456139;32;35210;-77
2022/04/27 00:16:18;;;;;;;9.23;5.40;;;;;;;12.03;66.21;99715.72;4455790;32;35194;-77
2022/04/27 00:19:05;;;;;;;8.98;5.12;;;;;;;12.54;65.08;99710.66;4446554;32;34973;-77
2022/04/27 00:21:52;;;;;;;8.98;5.53;;;;;;;12.73;64.75;99713.91;4448888;32;35675;-77
2022/04/27 00:24:39;;;;;;;9.75;5.43;;;;;;;12.24;67.45;99729.69;4442959;32;35923;-77
2022/04/27 00:27:27;;;;;;;7.82;4.93;;;;;;;12.20;66.73;99722.41;4457907;32;34328;-77
2022/04/27 00:30:15;;;;;;;7.62;4.53;;;;;;;12.95;62.00;99718.44;4461113;32;35059;-77
2022/04/27 00:33:02;;;;;;;8.02;4.87;;;;;;;13.09;61.42;99714.66;4442295;32;34699;-77
2022/04/27 00:35:49;;;;;;;10.85;5.47;;;;;;;13.28;61.19;99715.16;4451736;32;34963;-77
2022/04/27 00:38:35;;;;;;;8.02;4.65;;;;;;;13.15;60.69;99714.19;4458636;32;34199;-77
2022/04/27 00:41:22;;;;;;;11.23;5.37;;;;;;;13.08;62.09;99721.31;4471257;31;34157;-77
2022/04/27 00:44:09;;;;;;;9.30;5.68;;;;;;;12.42;65.09;99713.22;4477367;31;33457;-77
2022/04/27 00:46:56;;;;;;;11.20;5.70;;;;;;;11.95;66.36;99732.97;4475382;31;35739;-77
2022/04/27 00:49:51;;;;;;;11.80;6.93;;;;;;;12.53;64.65;99731.84;4473425;31;34583;-77
2022/04/27 00:52:38;;;;;;;12.05;6.80;;;;;;;11.72;68.13;99734.94;4477217;31;34102;-78
2022/04/27 00:55:24;;;;;;;12.52;6.75;;;;;;;11.64;68.57;99741.22;4476991;31;35494;-77
2022/04/27 00:58:13;;;;;;;12.45;6.80;;;;;;;11.33;70.75;99735.75;4482905;31;35656;-77
2022/04/27 01:01:15;;;;;;;11.98;6.60;;;;;;;11.51;70.51;99740.19;4472378;31;35440;-77
2022/04/27 01:04:05;;;;;;;14.25;9.05;;;;;;;11.32;71.91;99736.84;4483120;31;33667;-77
2022/04/27 01:06:51;;;;;;;11.90;7.35;;;;;;;11.18;73.69;99745.94;4469734;31;34599;-77
2022/04/27 01:09:39;;;;;;;13.23;6.68;;;;;;;11.22;74.26;99738.72;4473550;31;35914;-77
2022/04/27 01:12:27;;;;;;;11.15;6.93;;;;;;;11.58;73.20;99745.22;4471274;31;35697;-77
2022/04/27 01:15:32;;;;;;;12.93;7.50;;;;;;;11.43;73.96;99743.69;4472963;31;34145;-77
2022/04/27 01:18:19;;;;;;;12.55;7.72;;;;;;;11.36;75.71;99746.09;4476278;31;35616;-77
2022/04/27 01:21:07;;;;;;;13.88;7.55;;;;;;;11.15;77.66;99746.56;4473469;31;34442;-77
2022/04/27 01:23:54;;;;;;;13.80;8.55;;;;;;;10.95;79.92;99738.84;4476292;31;34121;-77
2022/04/27 01:26:40;;;;;;;17.58;8.15;;;;;;;11.06;81.19;99747.63;4480032;31;34133;-77
2022/04/27 01:29:27;;;;;;;14.87;8.63;;;;;;;10.81;85.74;99749.84;4485177;31;34630;-77
2022/04/27 01:32:15;;;;;;;13.48;8.40;;;;;;;10.84;87.40;99740.22;4488392;31;35075;-77
2022/04/27 01:35:01;;;;;;;14.15;8.10;;;;;;;10.40;94.08;99752.72;4478771;31;33544;-77
2022/04/27 01:38:00;;;;;;;15.45;8.63;;;;;;;10.50;94.60;99757.94;4471181;31;33624;-77
2022/04/27 01:40:47;;;;;;;14.65;9.40;;;;;;;10.59;96.31;99761.62;4473341;31;34362;-77
2022/04/27 01:43:35;;;;;;;15.00;8.98;;;;;;;10.29;99.42;99769.34;4477915;31;34914;-77
2022/04/27 01:46:22;;;;;;;16.60;8.52;;;;;;;10.38;97.81;99790.53;4483148;31;34322;-77
2022/04/27 01:49:09;;;;;;;16.23;8.52;;;;;;;10.78;96.72;99788.84;4476945;31;34233;-77
2022/04/27 01:55:00;;;;;;;14.02;8.77;;;;;;;11.03;92.06;99801.16;4478135;31;34896;-77
2022/04/27 01:57:48;;;;;;;16.37;9.20;;;;;;;10.48;95.50;99793.88;4471119;31;34570;-77
2022/04/27 02:00:38;;;;;;;15.18;8.70;;;;;;;10.26;100.00;99791.03;4474493;31;33679;-77
2022/04/27 02:03:26;;;;;;;16.17;9.48;;;;;;;11.09;97.26;99786.22;4474819;31;35198;-77
2022/04/27 02:06:16;;;;;;;15.95;10.25;;;;;;;11.43;95.67;99782.91;4470935;31;36003;-77
2022/04/27 02:09:04;;;;;;;16.48;9.52;;;;;;;10.98;99.19;99787.56;4453666;31;34590;-77
2022/04/27 02:11:53;;;;;;;17.08;9.57;;;;;;;10.91;98.10;99776.25;4491603;31;33760;-78
2022/04/27 02:14:40;;;;;;;15.15;9.80;;;;;;;11.01;100.00;99776.81;4464263;31;35181;-78
2022/04/27 02:17:27;;;;;;;15.93;9.82;;;;;;;11.69;95.52;99774.81;4463572;31;34996;-78
2022/04/27 02:20:13;;;;;;;15.57;9.43;;;;;;;12.23;91.94;99765.72;4464833;31;35348;-78
2022/04/27 02:23:00;;;;;;;17.87;9.88;;;;;;;12.11;92.76;99764.37;4464759;31;33160;-78
2022/04/27 02:25:47;;;;;;;20.05;9.25;;;;;;;12.26;92.18;99760.38;4479366;31;34113;-78
2022/04/27 02:28:35;;;;;;;16.37;9.85;;;;;;;12.45;91.12;99757.34;4490905;31;35935;-78
2022/04/27 02:31:22;;;;;;;14.73;9.73;;;;;;;12.37;92.41;99752.66;4495593;31;34612;-79
2022/04/27 02:34:10;;;;;;;15.77;8.65;;;;;;;12.95;88.65;99747.84;4486156;31;34128;-79
2022/04/27 02:36:58;;;;;;;13.80;9.00;;;;;;;13.15;87.94;99746.38;4464402;31;34112;-80
2022/04/27 02:39:46;;;;;;;15.35;9.25;;;;;;;13.07;87.92;99748.03;4464090;31;34621;-79
2022/04/27 02:42:33;;;;;;;16.08;9.70;;;;;;;13.19;87.47;99742.66;4465840;31;34514;-79
2022/04/27 02:45:20;;;;;;;19.25;10.63;;;;;;;12.59;89.72;99747.03;4495748;31;34728;-79
2022/04/27 02:48:09;;;;;;;17.95;11.60;;;;;;;10.69;100.00;99747.66;4473187;31;35417;-79
2022/04/27 02:54:03;;;;;;;16.42;10.07;;;;;;;10.12;100.00;99744.50;4484799;31;34190;-79
2022/04/27 02:56:50;;;;;;;16.17;10.10;;;;;;;10.37;100.00;99739.63;4464453;31;35058;-79
2022/04/27 02:59:37;;;;;;;18.35;10.65;;;;;;;11.00;100.00;99741.47;4463825;31;35210;-78
2022/04/27 03:02:24;;;;;;;16.70;9.27;;;;;;;11.74;94.55;99731.91;4480620;31;34902;-79
2022/04/27 03:05:10;;;;;;;19.55;9.63;;;;;;;11.89;95.05;99739.75;4472525;31;34560;-79
2022/04/27 03:07:57;;;;;;;15.20;9.30;;;;;;;12.29;92.42;99731.47;4489857;31;35271;-79
2022/04/27 03:10:47;;;;;;;15.25;9.02;;;;;;;12.37;92.17;99736.16;4482009;31;34590;-78
2022/04/27 03:13:34;;;;;;;15.50;10.05;;;;;;;12.43;91.97;99740.38;4492725;31;35798;-79
2022/04/27 03:16:21;;;;;;;16.17;10.18;;;;;;;12.65;91.98;99744.13;4472402;31;35210;-79
2022/04/27 03:19:08;;;;;;;18.02;10.18;;;;;;;11.48;98.63;99751.78;4468934;31;34141;-79
2022/04/27 03:21:54;;;;;;;14.95;9.63;;;;;;;11.49;100.00;99756.16;4470624;31;34570;-78
2022/04/27 03:24:42;;;;;;;17.58;10.05;;;;;;;11.98;97.35;99754.34;4469378;31;35699;-79
2022/04/27 03:27:28;;;;;;;16.50;9.85;;;;;;;12.18;95.62;99758.44;4468979;31;34641;-78
2022/04/27 03:30:16;;;;;;;17.60;10.65;;;;;;;11.99;96.82;99757.87;4482948;31;33955;-78
2022/04/27 03:33:03;;;;;;;19.75;11.30;;;;;;;11.09;100.00;99763.47;4485787;31;34559;-78
2022/04/27 03:35:52;;;;;;;18.77;11.18;;;;;;;11.16;100.00;99755.63;4481434;31;34949;-79
2022/04/27 03:38:40;;;;;;;18.37;11.15;;;;;;;11.31;100.00;99760.72;4494551;31;35470;-78
2022/04/27 03:41:28;;;;;;;20.40;11.20;;;;;;;11.25;100.00;99765.53;4463602;31;35218;-78
2022/04/27 03:44:19;;;;;;;18.67;11.57;;;;;;;11.49;100.00;99767.13;4464255;31;35580;-78
2022/04/27 03:47:06;;;;;;;18.52;11.05;;;;;;;11.45;100.00;99768.88;4471119;31;34668;-78
2022/04/27 03:49:54;;;;;;;23.60;12.48;;;;;;;10.74;100.00;99766.75;4492258;31;35154;-78
2022/04/27 03:52:42;;;;;;;21.37;11.95;;;;;;;11.23;100.00;99773.25;4495050;31;33774;-78
2022/04/27 03:55:33;;;;;;;21.37;11.27;;;;;;;11.17;100.00;99771.75;4480038;31;34313;-78
2022/04/27 03:58:20;;;;;;;18.77;10.82;;;;;;;11.53;100.00;99779.09;4463978;31;36027;-78
2022/04/27 04:01:08;;;;;;;16.75;10.10;;;;;;;11.59;99.83;99774.28;4470408;31;34069;-79
2022/04/27 04:03:59;;;;;;;19.90;11.07;;;;;;;12.07;97.65;99774.41;4464170;31;33753;-79
2022/04/27 04:06:48;;;;;;;16.48;10.50;;;;;;;12.11;97.66;99780.84;4489618;31;34584;-78
2022/04/27 04:09:40;;;;;;;;;;;;;;;12.30;95.56;99783.34;4472531;31;33965;-78
2022/04/27 04:12:28;;;;;;;60.40;29.00;;;;;;;12.05;96.31;99790.38;4480273;31;35691;-78
2022/04/27 04:15:18;;;;;;;47.05;26.73;;;;;;;12.15;94.69;99786.50;4474006;31;34257;-78
2022/04/27 04:18:08;;;;;;;34.13;18.07;;;;;;;12.08;95.18;99797.97;4471509;31;35231;-79
2022/04/27 04:20:55;;;;;;;32.17;15.60;;;;;;;12.24;95.15;99790.13;4487148;31;34810;-78
2022/04/27 04:23:42;;;;;;;26.37;16.40;;;;;;;12.50;92.82;99803.94;4468043;31;35518;-78
2022/04/27 04:29:36;;;;;;;18.98;11.20;;;;;;;11.54;98.44;99813.66;4472360;31;35212;-78
2022/04/27 04:32:25;;;;;;;19.65;10.88;;;;;;;10.51;100.00;99815.19;4472560;31;35984;-78
2022/04/27 04:35:17;;;;;;;19.15;11.20;;;;;;;10.98;100.00;99810.31;4472774;31;34137;-78
2022/04/27 04:38:04;;;;;;;18.20;10.77;;;;;;;10.73;100.00;99819.09;4496094;31;33953;-78
2022/04/27 04:40:53;;;;;;;22.02;10.85;;;;;;;10.72;100.00;99817.50;4487611;31;34454;-78
2022/04/27 04:43:45;;;;;;;21.92;11.95;;;;;;;11.19;100.00;99829.06;4472294;31;36357;-78
2022/04/27 04:46:41;;;;;;;20.33;12.05;;;;;;;10.94;100.00;99825.78;4476009;31;34367;-78
2022/04/27 04:49:34;;;;;;;27.62;12.27;;;;;;;10.56;100.00;99825.25;4474724;31;34203;-78
2022/04/27 04:52:27;;;;;;;20.05;12.18;;;;;;;10.64;100.00;99824.50;4474869;31;35606;-78
2022/04/27 04:55:16;;;;;;;17.95;10.95;;;;;;;10.72;100.00;99823.78;4477293;31;35583;-78
2022/04/27 04:58:09;;;;;;;19.45;11.50;;;;;;;10.90;100.00;99821.19;4488887;31;34156;-78
2022/04/27 05:00:59;;;;;;;19.55;12.57;;;;;;;10.88;100.00;99816.03;4493745;31;34133;-78
2022/04/27 05:03:48;;;;;;;27.15;14.87;;;;;;;10.45;100.00;99824.63;4489101;31;34280;-80
2022/04/27 05:06:54;;;;;;;20.62;11.63;;;;;;;10.79;100.00;99824.19;4482971;31;36145;-78
2022/04/27 05:09:42;;;;;;;22.23;12.05;;;;;;;10.82;100.00;99835.66;4486382;31;35415;-77
2022/04/27 05:12:39;;;;;;;17.75;10.80;;;;;;;11.99;100.00;99838.31;4488461;31;34279;-78
2022/04/27 05:15:26;;;;;;;16.48;11.38;;;;;;;11.70;100.00;99847.81;4475574;31;34218;-80
2022/04/27 05:18:22;;;;;;;18.08;11.52;;;;;;;11.44;100.00;99847.66;4464216;31;34831;-77
2022/04/27 05:21:11;;;;;;;20.73;12.02;;;;;;;10.95;100.00;99851.25;4493187;31;34637;-78
2022/04/27 05:24:01;;;;;;;18.90;11.32;;;;;;;11.32;100.00;99857.53;4477363;31;34225;-80
2022/04/27 05:26:50;;;;;;;18.70;11.60;;;;;;;11.12;100.00;99854.16;4466202;31;34752;-78
2022/04/27 05:32:45;;;;;;;16.60;10.48;;;;;;;11.63;100.00;99852.94;4485723;31;35986;-78
2022/04/27 05:35:41;;;;;;;18.65;11.07;;;;;;;11.82;100.00;99855.47;4464234;31;34102;-78
2022/04/27 05:38:29;;;;;;;14.87;9.88;;;;;;;11.49;100.00;99863.16;4479669;31;34144;-78
2022/04/27 05:41:16;;;;;;;14.30;8.65;;;;;;;11.41;100.00;99864.72;4476208;32;35988;-77
2022/04/27 05:44:06;;;;;;;15.85;10.07;;;;;;;12.50;95.28;99866.34;4463843;32;34148;-78
2022/04/27 05:46:54;;;;;;;16.25;9.70;;;;;;;11.71;98.80;99868.66;4478275;32;35049;-78
2022/04/27 05:49:42;;;;;;;13.15;8.30;;;;;;;12.69;93.59;99871.56;4477500;32;35085;-78
2022/04/27 05:52:49;;;;;;;14.15;8.18;;;;;;;12.76;91.24;99871.91;4470186;32;34610;-78
2022/04/27 05:55:43;;;;;;;14.18;8.55;;;;;;;12.98;90.82;99877.28;4477950;32;34548;-78
2022/04/27 05:58:36;;;;;;;14.40;9.63;;;;;;;13.67;86.40;99872.97;4465075;32;34200;-78
2022/04/27 06:01:25;;;;;;;11.27;7.85;;;;;;;13.81;87.19;99873.59;4479104;32;34678;-78
2022/04/27 06:04:16;;;;;;;16.27;8.40;;;;;;;12.82;89.15;99879.69;4476694;32;34936;-78
2022/04/27 06:07:07;;;;;;;14.57;8.77;;;;;;;12.44;91.52;99879.41;4475266;32;35393;-78
2022/04/27 06:09:55;;;;;;;12.90;8.82;;;;;;;13.32;89.54;99872.16;4471681;32;34810;-78
2022/04/27 06:12:46;;;;;;;13.45;8.15;;;;;;;12.85;89.88;99882.94;4475947;32;34559;-78
2022/04/27 06:15:43;;;;;;;14.63;8.98;;;;;;;13.94;84.16;99878.13;4464443;32;34996;-78
2022/04/27 06:18:32;;;;;;;12.82;8.02;;;;;;;14.07;81.74;99889.25;4472196;32;34946;-78
2022/04/27 06:21:22;;;;;;;13.52;8.27;;;;;;;14.18;80.25;99890.53;4477680;32;33989;-78
2022/04/27 06:24:09;;;;;;;12.45;7.62;;;;;;;14.33;78.45;99891.94;4470060;32;34537;-78
2022/04/27 06:26:56;;;;;;;13.18;8.50;;;;;;;13.40;81.52;99899.69;4467549;32;35327;-78
2022/04/27 06:29:44;;;;;;;12.30;7.87;;;;;;;13.10;84.28;99901.41;4473382;32;34556;-78
2022/04/27 06:32:33;;;;;;;15.00;8.82;;;;;;;12.66;88.33;99905.19;4468020;32;34677;-77
2022/04/27 06:35:24;;;;;;;14.32;8.38;;;;;;;12.81;87.16;99899.25;4470823;32;35145;-78
2022/04/27 06:38:13;;;;;;;11.75;7.30;;;;;;;12.46;86.93;99906.56;4474520;32;35861;-78
2022/04/27 06:41:21;;;;;;;14.48;8.30;;;;;;;12.72;83.61;99909.41;4468623;32;34192;-78
2022/04/27 06:44:16;;;;;;;13.52;8.23;;;;;;;13.30;80.99;99907.47;4462267;32;34775;-78
2022/04/27 06:47:10;;;;;;;16.45;9.75;;;;;;;12.60;84.96;99913.56;4473226;32;34595;-78
2022/04/27 06:50:16;;;;;;;16.00;9.32;;;;;;;12.52;86.22;99911.63;4472211;32;35962;-78
2022/04/27 06:53:11;;;;;;;16.35;10.23;;;;;;;12.58;85.17;99915.84;4467272;32;34943;-78
2022/04/27 06:56:02;;;;;;;21.20;11.25;;;;;;;11.52;96.04;99911.94;4462162;32;34904;-78
2022/04/27 06:58:53;;;;;;;17.25;10.63;;;;;;;11.60;97.90;99922.16;4469035;32;35459;-75
2022/04/27 07:01:43;;;;;;;20.60;12.40;;;;;;;11.44;99.98;99921.72;4472374;32;35068;-77
2022/04/27 07:04:34;;;;;;;18.50;12.70;;;;;;;10.96;100.00;99922.22;4476747;32;35019;-78
2022/04/27 07:07:31;;;;;;;21.80;13.00;;;;;;;11.19;100.00;99934.06;4464398;32;34969;-78
2022/04/27 07:10:19;;;;;;;22.45;13.20;;;;;;;11.76;100.00;99935.53;4475907;32;34384;-77
2022/04/27 07:13:06;;;;;;;23.95;15.20;;;;;;;11.83;98.31;99928.47;4471951;32;34358;-77
2022/04/27 07:15:59;;;;;;;20.40;12.63;;;;;;;11.14;100.00;99938.88;4476601;32;34618;-78
2022/04/27 07:18:45;;;;;;;23.02;13.23;;;;;;;11.10;100.00;99935.94;4471756;32;33074;-78
2022/04/27 07:21:35;;;;;;;21.33;13.00;;;;;;;11.30;100.00;99942.06;4470394;32;34555;-78
2022/04/27 07:24:22;;;;;;;21.25;12.82;;;;;;;11.37;100.00;99946.03;4463758;32;34749;-78
2022/04/27 07:27:11;;;;;;;21.75;13.25;;;;;;;11.87;98.23;99934.19;4477856;32;34078;-77
2022/04/27 07:29:59;;;;;;;20.88;12.98;;;;;;;12.05;98.16;99938.66;4479886;32;34748;-78
2022/04/27 07:32:47;;;;;;;19.67;12.05;;;;;;;11.81;95.24;99941.72;4468442;32;34214;-78
2022/04/27 07:35:35;;;;;;;19.73;12.00;;;;;;;11.89;97.69;99946.47;4452059;32;35633;-77
2022/04/27 07:38:22;;;;;;;18.83;12.35;;;;;;;12.02;95.44;99949.47;4468032;32;35045;-77
2022/04/27 07:41:14;;;;;;;18.65;12.65;;;;;;;12.05;93.00;99946.91;4470046;32;34126;-77
2022/04/27 07:44:04;;;;;;;20.10;12.80;;;;;;;11.86;96.98;99949.84;4470356;32;34682;-77
2022/04/27 07:46:51;;;;;;;19.80;11.98;;;;;;;11.81;97.40;99952.69;4471351;32;35630;-77
2022/04/27 07:49:40;;;;;;;17.35;11.73;;;;;;;12.73;94.58;99949.53;4471936;32;35395;-77
2022/04/27 07:52:28;;;;;;;21.50;12.20;;;;;;;12.74;93.80;99962.13;4464488;32;33013;-77
2022/04/27 07:55:14;;;;;;;19.27;13.13;;;;;;;12.01;96.61;99956.91;4468803;32;34346;-77
2022/04/27 07:58:02;;;;;;;19.12;12.30;;;;;;;12.09;95.32;99960.81;4474565;32;34702;-77
2022/04/27 08:00:49;;;;;;;18.08;12.02;;;;;;;12.55;93.38;99968.69;4470737;32;35478;-78
2022/04/27 08:03:37;;;;;;;16.90;10.98;;;;;;;13.08;89.68;99963.37;4478030;32;33811;-78
2022/04/27 08:06:36;;;;;;;15.88;10.10;;;;;;;12.87;88.52;99963.97;4473144;32;34653;-78
2022/04/27 08:09:26;;;;;;;17.67;10.70;;;;;;;13.00;85.53;99970.47;4469120;32;35090;-77
2022/04/27 08:12:13;;;;;;;19.17;11.65;;;;;;;13.82;83.95;99957.81;4466919;32;35462;-78
2022/04/27 08:15:00;;;;;;;16.33;11.23;;;;;;;13.99;83.08;99961.72;4470087;32;34294;-78
2022/04/27 08:18:01;;;;;;;17.55;10.32;;;;;;;13.91;81.10;99966.88;4461426;32;34523;-77
2022/04/27 08:23:59;;;;;;;17.00;10.75;;;;;;;13.83;82.45;99973.25;4475461;32;35312;-78
2022/04/27 08:26:48;;;;;;;17.12;10.10;;;;;;;13.92;80.15;99974.03;4471658;32;35091;-78
2022/04/27 08:29:36;;;;;;;16.60;10.88;;;;;;;13.76;81.07;99981.16;4470136;32;34664;-78
2022/04/27 08:32:26;;;;;;;16.60;10.95;;;;;;;13.06;83.88;99985.69;4475414;32;35169;-78
2022/04/27 08:35:18;;;;;;;18.87;10.32;;;;;;;13.75;78.92;99985.06;4475170;32;34045;-77
2022/04/27 08:38:11;;;;;;;16.92;10.27;;;;;;;14.33;77.81;99978.19;4474459;32;34181;-77
2022/04/27 08:40:59;;;;;;;17.43;10.77;;;;;;;14.97;73.91;99985.63;4470965;32;35485;-78
2022/04/27 08:43:47;;;;;;;14.85;10.00;;;;;;;13.77;78.27;99988.28;4468242;32;36011;-77
2022/04/27 08:46:35;;;;;;;15.02;9.65;;;;;;;13.45;80.78;99986.81;4473622;32;35417;-78
2022/04/27 08:49:22;;;;;;;16.05;10.40;;;;;;;13.33;83.92;99979.19;4472855;32;34712;-78
2022/04/27 08:52:11;;;;;;;16.52;11.35;;;;;;;13.68;79.15;99987.47;4474267;32;34652;-78
2022/04/27 08:55:00;;;;;;;21.50;12.35;;;;;;;13.69;83.28;99980.84;4474299;32;35885;-78
2022/04/27 08:57:53;;;;;;;18.30;12.02;;;;;;;13.71;84.69;99978.56;4474316;32;35502;-78
2022/04/27 09:00:44;;;;;;;19.77;11.02;;;;;;;14.18;82.23;99968.50;4470871;32;33597;-78
2022/04/27 09:03:39;;;;;;;17.10;11.48;;;;;;;14.30;82.04;99970.56;4468889;32;34426;-78
2022/04/27 09:06:26;;;;;;;;;;;;;;;14.46;79.86;99967.28;4471030;32;35557;-77
2022/04/27 09:09:33;;;;;;;20.98;12.80;;;;;;;13.43;84.99;99978.87;4473395;32;34902;-77
2022/04/27 09:12:22;;;;;;;19.05;11.70;;;;;;;13.78;83.82;99978.91;4472673;32;34685;-78
2022/04/27 09:15:11;;;;;;;18.35;12.73;;;;;;;14.18;81.75;99970.44;4477610;32;34677;-77
2022/04/27 09:21:11;;;;;;;20.25;13.50;;;;;;;14.47;79.25;99983.50;4474287;32;34243;-78
2022/04/27 09:24:03;;;;;;;18.55;12.57;;;;;;;14.43;79.68;99976.19;4478652;32;33728;-78
2022/04/27 09:27:03;;;;;;;21.40;14.33;;;;;;;14.53;80.88;99976.69;4477501;32;34577;-77
2022/04/27 09:30:01;;;;;;;16.60;11.70;;;;;;;14.02;81.02;99983.09;4474517;32;34840;-77
2022/04/27 09:32:52;;;;;;;19.20;12.50;;;;;;;14.59;80.22;99974.56;4474390;32;35510;-77
2022/04/27 09:35:40;;;;;;;18.40;11.85;;;;;;;14.90;79.76;99977.03;4473004;32;35210;-77
2022/04/27 09:38:40;;;;;;;19.12;11.80;;;;;;;14.92;77.59;99976.72;4466621;32;34580;-77
2022/04/27 09:41:39;;;;;;;17.12;11.15;;;;;;;15.09;76.72;99976.63;4463272;32;35017;-78
2022/04/27 09:44:28;;;;;;;16.20;10.90;;;;;;;15.42;73.28;99964.91;4470911;32;34344;-78
2022/04/27 09:47:16;;;;;;;18.52;11.00;;;;;;;15.64;75.36;99961.81;4472378;32;34244;-77
2022/04/27 09:50:02;;;;;;;17.70;10.85;;;;;;;14.52;77.08;99969.56;4475428;32;35545;-77
2022/04/27 09:52:55;;;;;;;17.60;11.27;;;;;;;14.74;76.22;99973.22;4472367;32;35088;-77
2022/04/27 09:55:51;;;;;;;17.50;12.10;;;;;;;14.05;79.68;99971.41;4471164;32;34688;-77
2022/04/27 09:58:44;;;;;;;17.58;11.57;;;;;;;13.93;81.87;99970.13;4474008;32;35007;-77
2022/04/27 10:01:36;;;;;;;17.40;11.60;;;;;;;14.17;78.61;99977.06;4475661;32;34751;-77
2022/04/27 10:04:28;;;;;;;14.87;11.00;;;;;;;14.34;78.36;99968.78;4476191;32;34948;-77
2022/04/27 10:07:16;;;;;;;18.30;12.35;;;;;;;14.69;76.74;99967.91;4469591;32;34586;-77
2022/04/27 10:10:06;;;;;;;17.50;11.38;;;;;;;13.68;81.22;99973.69;4474134;32;34143;-78
2022/04/27 10:12:55;;;;;;;17.48;11.82;;;;;;;13.94;80.58;99976.44;4470195;32;34534;-77
2022/04/27 10:15:45;;;;;;;20.40;12.65;;;;;;;13.90;80.99;99983.75;4474809;32;35665;-77
2022/04/27 10:18:36;;;;;;;17.90;12.65;;;;;;;13.77;80.96;99984.72;4472216;32;35359;-77
2022/04/27 10:21:56;;;;;;;18.08;12.52;;;;;;;13.75;81.88;99990.56;4477469;32;34237;-77
2022/04/27 10:24:46;;;;;;;19.55;12.57;;;;;;;13.52;83.82;99991.81;4473196;32;34822;-77
2022/04/27 10:27:42;;;;;;;20.80;13.62;;;;;;;13.58;85.27;99998.81;4473768;32;34999;-77
2022/04/27 10:30:46;;;;;;;22.02;13.55;;;;;;;12.90;88.79;99992.78;4475980;32;34502;-78
2022/04/27 10:33:50;;;;;;;20.12;13.43;;;;;;;13.03;90.66;100002.84;4468278;32;34258;-78
2022/04/27 10:36:38;;;;;;;20.73;13.68;;;;;;;13.40;88.85;100001.50;4473770;32;34592;-77
2022/04/27 10:39:34;;;;;;;19.70;13.80;;;;;;;13.26;90.02;99998.91;4462261;32;35912;-78
2022/04/27 10:42:28;;;;;;;23.65;16.35;;;;;;;13.16;91.26;100006.63;4471771;32;35381;-79
2022/04/27 10:45:22;;;;;;;22.58;16.35;;;;;;;12.78;93.49;100007.13;4470518;32;33827;-80
2022/04/27 10:48:45;;;;;;;23.77;16.17;;;;;;;12.51;97.44;100000.69;4458068;32;35562;-80
2022/04/27 10:51:59;;;;;;;26.92;17.35;;;;;;;12.85;94.43;100004.72;4455399;32;34831;-80
2022/04/27 10:54:47;;;;;;;22.77;15.80;;;;;;;12.72;94.95;100002.87;4466166;32;34204;-79
2022/04/27 10:57:39;;;;;;;23.90;16.90;;;;;;;12.24;96.79;99998.06;4464617;32;34848;-79
2022/04/27 11:00:28;;;;;;;30.57;16.87;;;;;;;12.05;97.63;99992.78;4462739;32;34669;-79
2022/04/27 11:03:38;;;;;;;24.05;16.52;;;;;;;12.34;96.36;99995.09;4477415;32;34555;-80
2022/04/27 11:06:27;;;;;;;22.50;15.75;;;;;;;12.24;96.71;99998.06;4467888;32;34016;-79
2022/04/27 11:09:27;;;;;;;25.60;18.30;;;;;;;11.90;98.49;99994.78;4455236;32;34145;-79
2022/04/27 11:12:20;;;;;;;21.73;15.15;;;;;;;11.76;98.65;100009.66;4471846;32;34624;-79
2022/04/27 11:15:12;;;;;;;23.40;15.90;;;;;;;12.04;97.39;100000.22;4464701;32;34976;-79
2022/04/27 11:18:04;;;;;;;25.60;15.95;;;;;;;12.44;95.53;100018.75;4465748;32;35192;-79
2022/04/27 11:21:01;;;;;;;27.23;16.20;;;;;;;12.10;96.70;100004.47;4471863;32;34883;-79
2022/04/27 11:23:51;;;;;;;24.40;16.15;;;;;;;11.93;97.83;100009.84;4467428;32;35484;-80
2022/04/27 11:26:44;;;;;;;24.02;15.93;;;;;;;12.10;97.48;100004.47;4467970;32;34989;-79
2022/04/27 11:29:34;;;;;;;25.05;14.48;;;;;;;12.26;95.53;100007.63;4466992;32;34615;-79
2022/04/27 11:32:28;;;;;;;22.35;15.10;;;;;;;12.06;97.75;100006.19;4461408;32;34040;-80
2022/04/27 11:35:25;;;;;;;20.85;14.40;;;;;;;12.27;96.02;100009.28;4472566;32;34588;-79
2022/04/27 11:38:18;;;;;;;22.62;15.07;;;;;;;12.15;98.08;100006.25;4468557;32;35028;-80
2022/04/27 11:41:21;;;;;;;25.35;15.43;;;;;;;11.71;100.00;100016.87;4459200;32;250778;-79
2022/04/27 11:44:09;;;;;;;25.77;15.98;;;;;;;11.98;100.00;100006.97;4472539;32;34001;-78
2022/04/27 11:47:04;;;;;;;26.10;16.85;;;;;;;11.63;100.00;100014.06;4470883;32;35539;-80
2022/04/27 11:50:02;;;;;;;24.33;15.95;;;;;;;11.52;100.00;100016.19;4469396;32;34415;-79
2022/04/27 11:52:59;;;;;;;25.50;16.17;;;;;;;11.56;100.00;100016.41;4473597;32;34515;-79
2022/04/27 11:58:45;;;;;;;24.45;17.40;;;;;;;11.45;99.54;100013.87;4460179;32;35530;-80
2022/04/27 12:01:37;;;;;;;23.73;16.23;;;;;;;11.34;100.00;100015.22;4472475;32;34600;-80
2022/04/27 12:04:28;;;;;;;26.75;16.77;;;;;;;11.72;99.73;100025.91;4468758;32;34753;-80
2022/04/27 12:07:21;;;;;;;28.05;17.40;;;;;;;11.50;100.00;100023.94;4471663;32;34047;-80
2022/04/27 12:10:12;;;;;;;25.83;16.12;;;;;;;11.39;100.00;100017.06;4466718;32;34934;-79
2022/04/27 12:13:00;;;;;;;29.58;16.85;;;;;;;11.64;100.00;100024.75;4469073;32;35115;-80
2022/04/27 12:15:50;;;;;;;24.25;16.12;;;;;;;11.21;100.00;100027.84;4468394;32;34248;-80
2022/04/27 12:18:51;;;;;;;27.50;19.02;;;;;;;11.38;100.00;100021.72;4469665;32;35108;-80
2022/04/27 12:21:42;;;;;;;27.02;16.40;;;;;;;11.16;100.00;100016.97;4465298;32;34330;-79
2022/04/27 12:24:43;;;;;;;25.67;16.75;;;;;;;11.01;100.00;100029.06;4469067;32;34600;-79
2022/04/27 12:27:45;;;;;;;24.00;15.65;;;;;;;11.08;100.00;100023.16;4476243;32;34550;-79
2022/04/27 12:30:55;;;;;;;23.65;15.77;;;;;;;10.97;100.00;100019.81;4467536;32;34717;-80
2022/04/27 12:33:48;;;;;;;26.08;17.92;;;;;;;10.85;100.00;100019.50;4472255;32;34411;-79
2022/04/27 12:39:44;;;;;;;29.37;20.30;;;;;;;10.56;100.00;100023.31;4473664;32;33906;-79
2022/04/27 12:42:37;;;;;;;29.52;18.92;;;;;;;10.47;100.00;100019.66;4480706;31;33826;-80
2022/04/27 12:45:27;;;;;;;28.92;19.87;;;;;;;10.66;100.00;100011.34;4478585;31;34288;-80
2022/04/27 12:48:30;;;;;;;28.55;19.12;;;;;;;10.52;100.00;100024.22;4476500;31;35540;-79
2022/04/27 12:51:28;;;;;;;29.60;17.33;;;;;;;10.37;100.00;100025.31;4479299;31;35476;-80
2022/04/27 12:54:15;;;;;;;30.17;18.77;;;;;;;10.48;100.00;100015.00;4478143;31;34112;-80
2022/04/27 12:57:03;;;;;;;28.85;18.58;;;;;;;10.23;100.00;100025.22;4481129;31;34453;-80
2022/04/27 12:59:55;;;;;;;26.65;17.30;;;;;;;10.62;100.00;100018.56;4461596;31;34836;-79
2022/04/27 13:02:45;;;;;;;29.37;18.50;;;;;;;10.67;100.00;100018.47;4472652;31;34659;-79
2022/04/27 13:05:38;;;;;;;31.92;21.05;;;;;;;10.43;100.00;100015.88;4469961;31;33628;-79
2022/04/27 13:08:24;;;;;;;31.92;19.15;;;;;;;10.09;100.00;100024.34;4479151;31;34664;-80
2022/04/27 13:14:22;;;;;;;33.70;21.23;;;;;;;9.64;100.00;100023.94;4485672;31;35496;-81
2022/04/27 13:17:18;;;;;;;35.67;21.05;;;;;;;9.80;100.00;100027.28;4477401;31;34611;-81
2022/04/27 13:20:19;;;;;;;34.22;20.85;;;;;;;9.73;100.00;100026.81;4486521;31;34791;-81
2022/04/27 13:23:12;;;;;;;36.90;21.60;;;;;;;9.36;100.00;100023.78;4450811;31;35231;-81
2022/04/27 13:26:02;;;;;;;40.33;25.27;;;;;;;9.27;100.00;100025.50;4475458;31;34533;-81
2022/04/27 13:28:50;;;;;;;40.92;25.25;;;;;;;9.07;100.00;100023.84;4475358;31;33842;-81
2022/04/27 13:31:38;;;;;;;40.15;23.55;;;;;;;8.99;100.00;100030.78;4472361;31;34605;-81
2022/04/27 13:37:25;;;;;;;39.25;22.30;;;;;;;9.32;100.00;100030.13;4478771;31;34540;-80